Time;durP1;ratioP1;P1;durP2;ratioP2;P2;SDS_P1;SDS_P2;PMS_P1;PMS_P2;Temp;Humidity;BMP_temperature;BMP_pressure;BME280_temperature;BME280_humidity;BME280_pressure;Samples;Min_cycle;Max_cycle;Signal;HPM_P1;HPM_P2
2021/03/07 00:01:05;;;;;;;27.20;11.30;;;;;;;0.61;58.21;99900.06;124050;1105;104752;-68
2021/03/07 00:03:32;;;;;;;27.25;12.07;;;;;;;0.63;57.90;99906.14;124104;1105;104808;-69
2021/03/07 00:06:00;;;;;;;32.40;13.10;;;;;;;0.64;58.05;99904.36;124125;1105;104338;-69
2021/03/07 00:08:36;;;;;;;27.57;12.07;;;;;;;0.61;57.84;99900.06;123970;1105;104188;-69
2021/03/07 00:11:21;;;;;;;26.00;10.93;;;;;;;0.58;57.71;99885.28;124517;1105;104254;-69
2021/03/07 00:13:49;;;;;;;27.53;11.43;;;;;;;0.59;57.97;99891.37;124092;1105;104187;-68
2021/03/07 00:16:16;;;;;;;29.23;11.77;;;;;;;0.57;57.91;99885.30;124041;1105;104268;-69
2021/03/07 00:18:43;;;;;;;29.50;11.97;;;;;;;0.56;58.07;99887.06;124044;1105;104332;-69
2021/03/07 00:21:10;;;;;;;31.53;12.87;;;;;;;0.54;57.99;99891.47;124127;1105;104291;-69
2021/03/07 00:23:37;;;;;;;32.10;13.07;;;;;;;0.53;58.27;99887.13;124112;1105;104258;-69
2021/03/07 00:26:04;;;;;;;29.23;12.40;;;;;;;0.49;57.92;99877.59;124106;1105;104159;-70
2021/03/07 00:28:31;;;;;;;31.67;13.53;;;;;;;0.48;58.34;99882.84;124903;1105;102283;-69
2021/03/07 00:30:59;;;;;;;29.18;12.63;;;;;;;0.44;58.05;99876.81;124235;1105;104265;-70
2021/03/07 00:33:28;;;;;;;31.10;12.17;;;;;;;0.41;57.85;99864.63;124419;1105;104264;-70
2021/03/07 00:35:55;;;;;;;29.20;12.97;;;;;;;0.38;58.16;99864.71;124177;1105;104259;-69
2021/03/07 00:38:22;;;;;;;31.70;12.23;;;;;;;0.39;57.78;99866.44;125031;1105;101823;-70
2021/03/07 00:40:49;;;;;;;27.93;11.20;;;;;;;0.39;58.05;99860.32;124248;1105;104290;-70
2021/03/07 00:43:16;;;;;;;29.00;13.05;;;;;;;0.39;58.00;99860.32;124284;1105;104229;-69
2021/03/07 00:45:43;;;;;;;29.73;12.43;;;;;;;0.38;58.04;99856.86;124216;1105;104221;-69
2021/03/07 00:48:10;;;;;;;27.60;11.77;;;;;;;0.39;57.87;99852.47;124125;1105;104181;-70
2021/03/07 00:50:38;;;;;;;32.27;11.80;;;;;;;0.37;58.11;99849.89;124256;1105;104176;-70
2021/03/07 00:53:09;;;;;;;27.53;11.53;;;;;;;0.36;57.67;99842.94;124234;1105;104692;-70
2021/03/07 00:55:36;;;;;;;27.37;11.47;;;;;;;0.33;58.09;99835.14;124003;1105;104233;-71
2021/03/07 00:58:03;;;;;;;28.43;11.70;;;;;;;0.29;57.72;99839.55;124210;1105;104248;-70
2021/03/07 01:00:35;;;;;;;25.40;10.57;;;;;;;0.27;58.28;99830.02;124171;1105;104265;-69
2021/03/07 01:03:07;;;;;;;28.60;11.67;;;;;;;0.25;58.22;99824.79;124303;1105;104147;-70
2021/03/07 01:05:34;;;;;;;28.50;10.20;;;;;;;0.24;57.77;99828.30;124340;1104;104223;-71
2021/03/07 01:08:01;;;;;;;30.27;11.70;;;;;;;0.24;58.26;99816.98;124341;1105;104187;-69
2021/03/07 01:10:33;;;;;;;27.77;11.37;;;;;;;0.24;57.58;99814.36;124291;1105;104248;-70
2021/03/07 01:13:06;;;;;;;27.33;11.47;;;;;;;0.23;57.88;99805.63;124188;1105;104325;-69
2021/03/07 01:15:39;;;;;;;22.77;8.80;;;;;;;0.22;58.06;99805.68;124317;1105;104254;-67
2021/03/07 01:18:11;;;;;;;28.37;11.50;;;;;;;0.18;58.22;99802.27;124251;1105;104158;-68
2021/03/07 01:20:40;;;;;;;25.60;10.40;;;;;;;0.19;58.07;99803.11;123877;1105;104217;-69
2021/03/07 01:23:14;;;;;;;29.23;11.67;;;;;;;0.16;57.72;99801.44;124152;1105;104254;-69
2021/03/07 01:25:45;;;;;;;26.05;11.00;;;;;;;0.19;58.08;99797.88;124212;1105;104224;-70
2021/03/07 01:28:14;;;;;;;27.63;11.73;;;;;;;0.22;58.35;99796.06;124266;1105;104722;-68
2021/03/07 01:30:43;;;;;;;31.70;12.20;;;;;;;0.24;58.46;99794.28;124136;1105;104258;-69
2021/03/07 01:33:11;;;;;;;24.83;10.43;;;;;;;0.24;57.90;99781.20;126139;1105;102134;-69
2021/03/07 01:35:39;;;;;;;25.77;11.27;;;;;;;0.26;57.85;99784.64;124209;1106;104259;-68
2021/03/07 01:38:07;;;;;;;23.90;10.10;;;;;;;0.25;57.62;99788.16;124200;1105;104258;-69
2021/03/07 01:40:46;;;;;;;26.30;11.73;;;;;;;0.24;57.37;99786.42;124525;1105;104245;-68
2021/03/07 01:43:17;;;;;;;24.70;10.87;;;;;;;0.25;57.75;99782.92;123997;1105;104150;-69
2021/03/07 01:45:45;;;;;;;25.00;11.37;;;;;;;0.26;58.15;99786.41;124272;1105;104223;-68
2021/03/07 01:48:18;;;;;;;29.53;11.77;;;;;;;0.25;57.71;99792.54;124161;1105;104262;-68
2021/03/07 01:50:52;;;;;;;28.15;10.82;;;;;;;0.26;57.95;99782.03;124241;1105;104262;-68
2021/03/07 01:53:22;;;;;;;24.87;10.53;;;;;;;0.26;58.27;99784.64;123992;1105;104252;-69
2021/03/07 01:55:56;;;;;;;29.77;11.40;;;;;;;0.22;57.81;99779.52;125042;1105;104405;-68
2021/03/07 01:58:32;;;;;;;23.32;9.03;;;;;;;0.17;57.60;99771.77;124233;1105;104153;-68
2021/03/07 02:00:59;;;;;;;28.07;10.67;;;;;;;0.17;57.82;99773.50;124225;1105;104238;-68
2021/03/07 02:03:28;;;;;;;24.77;9.10;;;;;;;0.14;57.88;99769.20;124606;1105;104261;-70
2021/03/07 02:06:01;;;;;;;26.77;10.60;;;;;;;0.11;57.96;99772.72;125902;1105;104242;-69
2021/03/07 02:08:28;;;;;;;25.03;9.37;;;;;;;0.13;57.73;99767.48;124283;1105;104162;-69
2021/03/07 02:11:03;;;;;;;27.37;10.53;;;;;;;0.12;57.94;99765.75;124322;1106;104268;-69
2021/03/07 02:13:41;;;;;;;24.67;9.60;;;;;;;0.10;57.83;99762.30;124348;1105;104274;-67
2021/03/07 02:16:15;;;;;;;29.67;12.57;;;;;;;0.06;57.78;99753.62;124315;1105;104258;-68
2021/03/07 02:18:50;;;;;;;32.27;11.57;;;;;;;0.04;57.45;99757.17;124295;1105;104303;-68
2021/03/07 02:21:42;;;;;;;28.47;11.93;;;;;;;0.02;57.73;99748.49;124164;1105;104325;-67
2021/03/07 02:24:16;;;;;;;26.00;10.53;;;;;;;-0.02;57.36;99747.70;124109;1105;104187;-68
2021/03/07 02:26:51;;;;;;;23.95;9.40;;;;;;;-0.02;57.97;99745.92;124138;1105;104242;-69
2021/03/07 02:29:23;;;;;;;23.07;9.13;;;;;;;-0.04;57.76;99741.63;124250;1105;104280;-68
2021/03/07 02:31:58;;;;;;;18.43;7.20;;;;;;;-0.04;57.34;99744.25;124227;1105;104258;-69
2021/03/07 02:34:34;;;;;;;23.10;9.37;;;;;;;-0.07;57.62;99734.69;124692;1105;103650;-70
2021/03/07 02:37:09;;;;;;;20.27;7.60;;;;;;;-0.07;57.65;99733.84;124117;1105;104246;-69
2021/03/07 02:39:41;;;;;;;23.13;9.43;;;;;;;-0.12;57.94;99726.05;124163;1105;104195;-69
2021/03/07 02:42:20;;;;;;;22.40;8.70;;;;;;;-0.14;57.44;99725.22;124614;1105;104274;-70
2021/03/07 02:44:54;;;;;;;24.23;9.50;;;;;;;-0.16;57.54;99720.03;124060;1105;104284;-69
2021/03/07 02:47:24;;;;;;;24.75;9.28;;;;;;;-0.16;57.74;99722.65;124121;1105;104183;-69
2021/03/07 02:50:00;;;;;;;24.73;9.40;;;;;;;-0.16;58.07;99725.27;124049;1105;104184;-70
2021/03/07 02:52:27;;;;;;;25.70;9.90;;;;;;;-0.16;57.26;99727.88;125281;1105;104152;-69
2021/03/07 02:55:00;;;;;;;22.57;9.43;;;;;;;-0.15;57.75;99715.65;124138;1105;104233;-70
2021/03/07 02:57:31;;;;;;;25.63;8.97;;;;;;;-0.16;57.65;99714.80;123983;1105;104366;-70
2021/03/07 02:59:58;;;;;;;24.20;8.37;;;;;;;-0.18;57.86;99710.47;124184;1105;104339;-69
2021/03/07 03:02:32;;;;;;;23.27;7.87;;;;;;;-0.19;57.40;99703.52;123872;1105;104269;-69
2021/03/07 03:05:01;;;;;;;21.52;8.68;;;;;;;-0.21;57.26;99710.56;124175;1105;104187;-70
2021/03/07 03:07:30;;;;;;;21.90;8.70;;;;;;;-0.23;58.02;99699.27;125897;1105;102096;-69
2021/03/07 03:10:05;;;;;;;25.63;9.83;;;;;;;-0.24;57.91;99701.00;123965;1105;104268;-70
2021/03/07 03:12:38;;;;;;;18.87;7.57;;;;;;;-0.25;57.19;99696.66;124017;1106;104264;-70
2021/03/07 03:15:13;;;;;;;24.70;9.65;;;;;;;-0.27;57.30;99690.59;124079;1105;104239;-69
2021/03/07 03:17:43;;;;;;;20.63;8.23;;;;;;;-0.28;57.72;99691.48;124254;1105;104206;-70
2021/03/07 03:20:13;;;;;;;25.30;9.60;;;;;;;-0.33;57.66;99690.70;124084;1105;104248;-70
2021/03/07 03:22:46;;;;;;;24.17;9.13;;;;;;;-0.35;57.53;99688.13;124111;1105;104207;-68
2021/03/07 03:25:14;;;;;;;17.82;6.97;;;;;;;-0.36;56.95;99690.75;124113;1105;104283;-68
2021/03/07 03:27:42;;;;;;;21.00;8.60;;;;;;;-0.34;57.59;99683.75;124282;1105;104203;-69
2021/03/07 03:30:20;;;;;;;21.30;8.93;;;;;;;-0.34;57.33;99691.59;124162;1105;104181;-70
2021/03/07 03:32:47;;;;;;;19.23;7.53;;;;;;;-0.36;57.37;99691.63;124187;1105;104184;-69
2021/03/07 03:35:18;;;;;;;19.90;8.15;;;;;;;-0.38;57.39;99701.25;124191;1105;104229;-69
2021/03/07 03:37:49;;;;;;;21.87;8.57;;;;;;;-0.38;57.22;99690.80;124191;1105;104481;-69
2021/03/07 03:40:24;;;;;;;24.30;8.73;;;;;;;-0.38;57.63;99685.57;124304;1105;105017;-70
2021/03/07 03:43:13;;;;;;;20.83;8.73;;;;;;;-0.37;57.77;99692.52;124176;1106;104267;-68
2021/03/07 03:45:46;;;;;;;21.77;8.67;;;;;;;-0.38;57.29;99684.69;124037;1105;104220;-69
2021/03/07 03:48:22;;;;;;;20.97;8.00;;;;;;;-0.39;57.47;99683.84;124150;1105;104278;-69
2021/03/07 03:50:56;;;;;;;25.97;9.50;;;;;;;-0.40;57.24;99681.23;123984;1105;104303;-70
2021/03/07 03:53:24;;;;;;;24.13;8.87;;;;;;;-0.43;57.26;99683.94;124174;1105;104187;-70
2021/03/07 03:55:53;;;;;;;21.00;8.35;;;;;;;-0.43;57.35;99695.24;124373;1105;104179;-73
2021/03/07 03:58:28;;;;;;;21.40;8.57;;;;;;;-0.46;57.20;99684.84;124267;1105;104233;-70
2021/03/07 04:00:56;;;;;;;21.87;8.47;;;;;;;-0.47;57.83;99691.83;124326;1105;104316;-70
2021/03/07 04:03:26;;;;;;;21.57;8.27;;;;;;;-0.49;57.29;99693.61;124154;1105;104448;-70
2021/03/07 04:05:59;;;;;;;22.13;8.33;;;;;;;-0.49;57.71;99690.12;125610;1105;104181;-71
2021/03/07 04:08:31;;;;;;;22.03;7.63;;;;;;;-0.50;57.24;99676.20;125393;1105;102049;-71
2021/03/07 04:11:03;;;;;;;22.30;8.27;;;;;;;-0.50;57.53;99685.78;124245;1105;104682;-70
2021/03/07 04:13:36;;;;;;;20.10;8.10;;;;;;;-0.50;57.99;99678.81;124165;1105;104274;-70
2021/03/07 04:16:04;;;;;;;19.80;7.87;;;;;;;-0.51;57.92;99682.31;124224;1105;104216;-70
2021/03/07 04:18:31;;;;;;;22.50;7.57;;;;;;;-0.48;57.73;99679.66;124450;1105;104192;-69
2021/03/07 04:21:05;;;;;;;20.47;7.80;;;;;;;-0.47;57.35;99673.53;124306;1105;104178;-70
2021/03/07 04:23:33;;;;;;;;;;;;;;;-0.46;57.79;99677.00;124289;1105;104251;-71
2021/03/07 04:26:02;;;;;;;20.50;7.50;;;;;;;-0.49;58.07;99675.31;124405;1105;104221;-70
2021/03/07 04:28:31;;;;;;;20.53;7.70;;;;;;;-0.45;57.84;99673.50;124655;1105;104620;-70
2021/03/07 04:31:02;;;;;;;20.93;8.03;;;;;;;-0.42;57.94;99667.37;124064;1105;104264;-70
2021/03/07 04:33:34;;;;;;;20.60;8.43;;;;;;;-0.39;57.56;99673.39;124316;1105;104268;-69
2021/03/07 04:36:06;;;;;;;21.60;8.50;;;;;;;-0.39;57.19;99675.13;125200;1104;104204;-69
2021/03/07 04:38:38;;;;;;;20.50;8.40;;;;;;;-0.38;58.01;99669.01;125115;1105;104206;-69
2021/03/07 04:41:11;;;;;;;19.90;7.63;;;;;;;-0.35;57.67;99666.34;124167;1105;104185;-69
2021/03/07 04:43:54;;;;;;;19.82;7.95;;;;;;;-0.33;57.23;99664.56;124996;1105;104167;-68
2021/03/07 04:46:26;;;;;;;19.13;7.90;;;;;;;-0.33;57.84;99660.21;124259;1105;104217;-68
2021/03/07 04:48:57;;;;;;;21.00;8.13;;;;;;;-0.34;57.46;99655.88;124208;1105;104775;-69
2021/03/07 04:51:24;;;;;;;19.93;7.47;;;;;;;-0.31;57.41;99652.33;124689;1105;104262;-71
2021/03/07 04:53:54;;;;;;;20.13;7.30;;;;;;;-0.27;57.78;99650.53;124288;1105;104169;-67
2021/03/07 04:56:22;;;;;;;19.17;7.80;;;;;;;-0.26;57.59;99647.03;124258;1105;104313;-70
2021/03/07 04:58:53;;;;;;;22.47;7.90;;;;;;;-0.26;57.70;99640.03;124179;1105;104157;-70
2021/03/07 05:01:20;;;;;;;19.80;8.08;;;;;;;-0.28;57.82;99639.20;124162;1105;104300;-70
2021/03/07 05:03:53;;;;;;;19.37;7.10;;;;;;;-0.27;57.51;99635.69;123926;1105;104328;-68
2021/03/07 05:06:25;;;;;;;21.50;8.07;;;;;;;-0.24;57.67;99633.02;124269;1105;104294;-68
2021/03/07 05:08:56;;;;;;;22.13;8.07;;;;;;;-0.22;57.32;99636.47;124224;1105;104248;-69
2021/03/07 05:11:23;;;;;;;21.15;7.78;;;;;;;-0.21;57.94;99626.89;124160;1105;104261;-70
2021/03/07 05:13:51;;;;;;;18.30;7.37;;;;;;;-0.20;58.00;99616.38;124321;1105;104259;-68
2021/03/07 05:16:20;;;;;;;19.52;7.62;;;;;;;-0.19;57.98;99618.11;124251;1105;104729;-68
2021/03/07 05:18:51;;;;;;;;;;;;;;;-0.17;57.80;99620.68;124245;1105;104245;-71
2021/03/07 05:21:19;;;;;;;19.23;7.95;;;;;;;-0.18;58.04;99611.98;123936;1105;104198;-70
2021/03/07 05:23:46;;;;;;;16.97;7.50;;;;;;;-0.18;57.50;99618.95;124610;1105;104181;-70
2021/03/07 05:26:14;;;;;;;20.02;8.23;;;;;;;-0.19;57.62;99612.87;124189;1105;104258;-70
2021/03/07 05:28:43;;;;;;;21.53;9.10;;;;;;;-0.20;57.10;99613.77;125044;1104;104158;-70
2021/03/07 05:31:10;;;;;;;22.43;8.97;;;;;;;-0.20;57.58;99602.44;124515;1105;104159;-71
2021/03/07 05:33:37;;;;;;;22.47;8.73;;;;;;;-0.18;57.71;99606.76;124181;1105;104258;-69
2021/03/07 05:36:06;;;;;;;21.23;7.87;;;;;;;-0.17;57.51;99599.76;124279;1105;104207;-69
2021/03/07 05:38:33;;;;;;;20.37;8.20;;;;;;;-0.17;57.91;99602.38;124193;1105;104284;-68
2021/03/07 05:41:00;;;;;;;20.73;8.20;;;;;;;-0.18;57.98;99592.81;124246;1105;104223;-69
2021/03/07 05:43:27;;;;;;;19.30;8.00;;;;;;;-0.19;57.95;99597.19;124163;1105;104271;-69
2021/03/07 05:45:54;;;;;;;20.20;8.20;;;;;;;-0.18;57.78;99595.42;124132;1105;104185;-69
2021/03/07 05:48:22;;;;;;;20.90;8.80;;;;;;;-0.16;57.24;99589.28;124170;1105;104178;-70
2021/03/07 05:50:49;;;;;;;21.43;8.43;;;;;;;-0.13;57.56;99585.73;124056;1105;104235;-69
2021/03/07 05:53:18;;;;;;;21.17;8.83;;;;;;;-0.12;58.01;99589.23;124145;1105;104258;-68
2021/03/07 05:55:46;;;;;;;19.67;7.67;;;;;;;-0.13;57.43;99580.50;124062;1105;104253;-69
2021/03/07 05:58:14;;;;;;;20.00;8.70;;;;;;;-0.13;57.21;99585.73;124384;1105;104179;-68
2021/03/07 06:00:41;;;;;;;19.57;7.67;;;;;;;-0.11;58.00;99585.72;124180;1105;104181;-69
2021/03/07 06:03:09;;;;;;;18.00;7.73;;;;;;;-0.12;57.69;99595.30;124195;1105;104187;-70
2021/03/07 06:05:36;;;;;;;20.83;8.47;;;;;;;-0.08;57.75;99594.34;124088;1105;104182;-70
2021/03/07 06:08:06;;;;;;;17.95;7.20;;;;;;;-0.10;57.47;99580.44;124102;1105;104196;-70
2021/03/07 06:10:38;;;;;;;19.63;7.70;;;;;;;-0.06;57.48;99576.03;124028;1105;104220;-69
2021/03/07 06:13:10;;;;;;;20.07;8.67;;;;;;;-0.03;57.86;99583.81;124156;1106;104265;-68
2021/03/07 06:16:07;;;;;;;22.77;8.63;;;;;;;0.03;57.27;99590.66;124153;1105;104182;-69
2021/03/07 06:18:42;;;;;;;22.23;8.07;;;;;;;0.08;57.84;99586.19;123930;1106;104200;-69
2021/03/07 06:21:32;;;;;;;19.60;7.60;;;;;;;0.11;57.95;99596.59;124101;1106;104645;-69
2021/03/07 06:24:00;;;;;;;18.77;7.73;;;;;;;0.14;57.34;99586.06;124021;1105;104181;-69
2021/03/07 06:26:28;;;;;;;20.97;7.90;;;;;;;0.18;58.05;99576.38;124217;1105;104263;-69
2021/03/07 06:29:09;;;;;;;22.10;8.83;;;;;;;0.21;57.65;99582.39;124206;1105;104258;-68
2021/03/07 06:31:37;;;;;;;19.87;8.60;;;;;;;0.28;57.73;99583.14;124143;1105;104156;-68
2021/03/07 06:34:04;;;;;;;20.20;8.60;;;;;;;0.33;57.34;99578.67;125053;1105;104249;-69
2021/03/07 06:36:31;;;;;;;20.90;8.17;;;;;;;0.39;58.09;99585.52;124024;1105;104296;-70
2021/03/07 06:39:01;;;;;;;20.87;8.23;;;;;;;0.47;57.34;99580.97;123958;1105;104280;-68
2021/03/07 06:41:30;;;;;;;21.00;8.80;;;;;;;0.57;57.84;99581.61;124077;1105;104272;-68
2021/03/07 06:44:12;;;;;;;19.63;7.70;;;;;;;0.67;57.67;99577.00;123962;1105;104271;-69
2021/03/07 06:46:42;;;;;;;20.07;8.03;;;;;;;0.74;57.65;99581.20;124062;1105;104246;-68
2021/03/07 06:49:28;;;;;;;21.93;8.67;;;;;;;0.84;57.67;99577.47;124082;1105;104211;-68
2021/03/07 06:52:18;;;;;;;19.77;7.97;;;;;;;0.94;57.71;99574.63;124109;1105;104158;-69
2021/03/07 06:55:11;;;;;;;20.53;8.73;;;;;;;1.01;57.64;99576.20;124085;1106;104166;-69
2021/03/07 06:57:38;;;;;;;19.83;7.50;;;;;;;1.08;57.53;99576.89;124060;1105;104268;-70
2021/03/07 07:00:06;;;;;;;25.17;9.00;;;;;;;1.12;57.78;99574.14;123965;1105;104194;-70
2021/03/07 07:02:33;;;;;;;20.23;8.73;;;;;;;1.21;57.53;99575.69;123786;1105;104242;-71
2021/03/07 07:05:01;;;;;;;22.45;9.30;;;;;;;1.29;57.53;99580.72;123856;1105;104178;-70
2021/03/07 07:07:29;;;;;;;21.95;8.98;;;;;;;1.36;57.79;99557.81;123807;1105;104159;-69
2021/03/07 07:09:57;;;;;;;19.40;8.70;;;;;;;1.40;57.65;99551.59;124028;1105;104245;-70
2021/03/07 07:12:27;;;;;;;19.80;8.50;;;;;;;1.45;57.75;99553.17;124246;1105;104194;-69
2021/03/07 07:15:12;;;;;;;22.70;8.83;;;;;;;1.53;57.41;99557.34;124194;1105;104190;-67
2021/03/07 07:17:40;;;;;;;22.10;9.07;;;;;;;1.60;57.78;99558.91;124205;1105;104220;-69
2021/03/07 07:20:11;;;;;;;22.17;8.70;;;;;;;1.65;57.63;99557.02;124220;1104;104169;-69
2021/03/07 07:22:38;;;;;;;22.20;9.40;;;;;;;1.71;57.18;99556.84;124174;1105;104187;-69
2021/03/07 07:25:06;;;;;;;20.83;8.70;;;;;;;1.77;57.62;99551.42;124161;1105;104163;-69
2021/03/07 07:27:34;;;;;;;22.45;8.35;;;;;;;1.85;57.73;99543.33;124201;1105;104184;-70
2021/03/07 07:30:01;;;;;;;20.43;8.77;;;;;;;1.97;58.21;99549.97;124273;1105;104188;-71
2021/03/07 07:32:42;;;;;;;21.73;9.77;;;;;;;2.08;57.51;99542.64;124194;1105;104276;-68
2021/03/07 07:35:22;;;;;;;19.15;8.55;;;;;;;2.17;57.37;99531.00;124204;1105;104146;-68
2021/03/07 07:37:59;;;;;;;19.43;9.00;;;;;;;2.25;58.12;99533.38;124202;1105;104287;-71
2021/03/07 07:40:41;;;;;;;19.37;7.47;;;;;;;2.36;57.61;99533.06;124143;1105;104175;-70
2021/03/07 07:43:09;;;;;;;18.77;7.50;;;;;;;2.46;57.53;99531.84;124201;1105;104274;-71
2021/03/07 07:45:37;;;;;;;19.93;7.50;;;;;;;2.50;57.79;99524.74;124265;1105;104165;-70
2021/03/07 07:48:08;;;;;;;21.23;8.27;;;;;;;2.53;57.38;99522.02;124250;1105;104171;-71
2021/03/07 07:50:38;;;;;;;19.03;8.20;;;;;;;2.56;57.57;99521.92;124212;1105;104623;-71
2021/03/07 07:53:05;;;;;;;19.50;8.57;;;;;;;2.65;57.94;99518.13;124198;1105;104249;-70
2021/03/07 07:55:50;;;;;;;23.07;8.60;;;;;;;2.67;57.91;99522.41;124186;1105;104211;-71
2021/03/07 07:58:47;;;;;;;20.40;8.20;;;;;;;2.75;57.09;99516.92;124214;1105;104184;-68
2021/03/07 08:01:15;;;;;;;21.15;7.15;;;;;;;2.87;57.51;99512.14;124215;1104;104253;-70
2021/03/07 08:03:46;;;;;;;23.17;8.27;;;;;;;2.91;57.21;99513.76;124223;1105;104306;-70
2021/03/07 08:06:22;;;;;;;22.30;8.23;;;;;;;2.94;57.28;99503.14;124220;1105;104187;-69
2021/03/07 08:08:49;;;;;;;19.53;8.60;;;;;;;2.96;57.17;99499.57;124246;1105;104280;-70
2021/03/07 08:11:23;;;;;;;18.40;8.00;;;;;;;2.97;57.23;99485.52;124236;1106;104258;-70
2021/03/07 08:13:57;;;;;;;17.17;7.15;;;;;;;2.98;57.07;99488.99;124229;1105;104245;-69
2021/03/07 08:16:38;;;;;;;20.60;8.40;;;;;;;3.00;57.04;99489.80;124274;1105;104259;-69
2021/03/07 08:19:08;;;;;;;18.63;7.23;;;;;;;3.01;57.12;99475.74;124227;1105;104158;-69
2021/03/07 08:21:55;;;;;;;21.00;8.43;;;;;;;2.97;57.33;99482.89;124227;1105;104181;-69
2021/03/07 08:24:24;;;;;;;19.50;7.60;;;;;;;2.98;57.10;99478.48;124245;1105;104258;-69
2021/03/07 08:26:57;;;;;;;20.55;8.50;;;;;;;2.94;56.72;99474.23;124242;1105;104252;-69
2021/03/07 08:29:37;;;;;;;19.87;7.83;;;;;;;2.99;57.21;99474.94;124242;1105;104195;-70
2021/03/07 08:32:33;;;;;;;17.93;6.83;;;;;;;3.09;57.33;99471.08;124004;1105;104159;-70
2021/03/07 08:35:24;;;;;;;19.80;8.13;;;;;;;3.08;56.93;99471.99;124129;1106;104262;-68
2021/03/07 08:38:19;;;;;;;19.90;8.33;;;;;;;3.15;56.53;99464.73;124066;1105;104731;-69
2021/03/07 08:40:56;;;;;;;23.55;9.05;;;;;;;3.21;57.49;99451.38;124141;1105;104698;-72
2021/03/07 08:43:23;;;;;;;178.20;111.00;;;;;;;3.41;57.51;99448.02;124322;1105;104265;-69
2021/03/07 08:46:10;;;;;;;23.17;10.00;;;;;;;3.57;57.20;99453.55;124217;1106;104165;-69
2021/03/07 08:48:43;;;;;;;22.63;9.50;;;;;;;3.76;57.41;99444.97;124269;1105;104182;-69
2021/03/07 08:51:13;;;;;;;21.53;9.43;;;;;;;4.26;57.14;99435.98;124245;1104;104182;-71
2021/03/07 08:53:43;;;;;;;21.00;9.10;;;;;;;5.08;56.97;99442.20;124179;1105;104227;-70
2021/03/07 08:56:11;;;;;;;21.00;8.60;;;;;;;5.72;56.62;99434.91;124101;1105;104214;-68
2021/03/07 08:58:39;;;;;;;20.37;8.47;;;;;;;6.20;56.48;99434.47;124104;1105;104239;-68
2021/03/07 09:01:07;;;;;;;16.07;7.10;;;;;;;6.54;56.05;99431.02;124204;1105;104184;-69
2021/03/07 09:03:35;;;;;;;19.57;8.93;;;;;;;6.75;56.21;99416.78;124196;1105;104245;-68
2021/03/07 09:06:13;;;;;;;21.83;8.10;;;;;;;6.98;55.98;99421.72;124115;1105;104223;-68
2021/03/07 09:08:40;;;;;;;17.63;6.63;;;;;;;7.21;55.61;99422.32;124162;1105;104328;-67
2021/03/07 09:11:09;;;;;;;20.60;8.40;;;;;;;7.29;56.07;99428.06;124093;1105;104155;-68
2021/03/07 09:13:47;;;;;;;18.30;7.63;;;;;;;7.26;56.79;99415.00;124225;1106;104158;-68
2021/03/07 09:16:16;;;;;;;18.20;7.40;;;;;;;7.28;55.95;99418.41;124255;1105;104274;-69
2021/03/07 09:18:44;;;;;;;17.60;7.97;;;;;;;7.26;55.97;99419.41;124051;1105;104162;-72
2021/03/07 09:21:19;;;;;;;19.27;7.97;;;;;;;7.25;56.37;99405.34;123993;1105;106312;-69
2021/03/07 09:23:51;;;;;;;18.23;7.90;;;;;;;7.14;56.45;99407.70;124148;1105;104203;-69
2021/03/07 09:26:21;;;;;;;18.80;7.83;;;;;;;7.07;55.62;99409.83;124213;1105;104274;-70
2021/03/07 09:28:53;;;;;;;22.90;9.37;;;;;;;6.86;56.17;99406.52;124194;1105;104181;-69
2021/03/07 09:31:23;;;;;;;19.63;8.60;;;;;;;6.92;56.10;99402.69;123975;1106;104242;-69
2021/03/07 09:34:02;;;;;;;21.57;8.53;;;;;;;6.99;56.30;99388.21;123694;1105;104408;-71
2021/03/07 09:36:31;;;;;;;20.20;8.60;;;;;;;6.88;55.75;99402.00;123875;1105;104258;-68
2021/03/07 09:39:02;;;;;;;19.90;7.77;;;;;;;6.82;55.77;99389.10;123973;1105;104173;-71
2021/03/07 09:41:47;;;;;;;21.47;7.50;;;;;;;6.82;55.61;99387.30;123988;1105;104262;-70
2021/03/07 09:44:20;;;;;;;18.30;7.40;;;;;;;6.78;55.37;99391.03;124043;1105;104179;-70
2021/03/07 09:46:50;;;;;;;20.25;8.83;;;;;;;6.62;55.76;99392.77;123812;1105;104217;-71
2021/03/07 09:49:23;;;;;;;18.43;7.53;;;;;;;6.36;55.10;99393.16;123819;1106;104259;-71
2021/03/07 09:51:52;;;;;;;19.90;7.90;;;;;;;6.18;54.74;99389.65;124075;1106;104220;-71
2021/03/07 09:54:20;;;;;;;19.90;7.80;;;;;;;5.80;54.68;99387.90;124132;1105;104741;-67
2021/03/07 09:56:55;;;;;;;19.87;7.77;;;;;;;5.59;54.64;99391.57;124111;1105;104159;-70
2021/03/07 09:59:31;;;;;;;16.47;6.93;;;;;;;5.45;55.12;99384.31;124149;1106;104329;-69
2021/03/07 10:02:00;;;;;;;19.63;8.93;;;;;;;5.34;55.32;99387.41;124134;1105;104239;-71
2021/03/07 10:04:37;;;;;;;21.13;8.73;;;;;;;5.27;55.03;99386.86;124286;1105;104317;-69
2021/03/07 10:07:10;;;;;;;19.50;8.27;;;;;;;5.11;54.83;99381.42;124164;1105;104217;-67
2021/03/07 10:09:56;;;;;;;19.97;9.23;;;;;;;4.95;54.78;99383.02;124136;1105;104254;-69
2021/03/07 10:12:24;;;;;;;21.53;9.50;;;;;;;4.81;54.80;99388.91;124203;1105;104268;-67
2021/03/07 10:14:55;;;;;;;28.60;14.15;;;;;;;4.60;54.34;99383.66;124262;1105;104172;-66
2021/03/07 10:17:22;;;;;;;21.97;8.57;;;;;;;4.49;54.75;99383.26;124113;1105;104227;-67
2021/03/07 10:19:51;;;;;;;21.37;8.93;;;;;;;4.34;54.64;99382.13;124119;1105;104214;-67
2021/03/07 10:22:19;;;;;;;29.03;12.60;;;;;;;4.21;54.53;99379.16;124176;1105;104258;-68
2021/03/07 10:24:52;;;;;;;22.33;9.53;;;;;;;4.20;54.65;99364.28;124291;1106;103659;-69
2021/03/07 10:27:31;;;;;;;20.70;8.85;;;;;;;4.30;54.76;99368.22;124081;1105;104188;-67
2021/03/07 10:29:59;;;;;;;19.97;9.20;;;;;;;4.36;54.53;99361.86;123848;1106;104271;-68
2021/03/07 10:32:26;;;;;;;21.67;8.00;;;;;;;4.38;54.62;99362.66;123895;1105;104656;-68
2021/03/07 10:34:55;;;;;;;21.73;8.87;;;;;;;4.29;54.47;99370.02;124163;1105;104264;-70
2021/03/07 10:37:37;;;;;;;32.63;14.47;;;;;;;4.17;54.14;99360.86;124142;1105;103999;-71
2021/03/07 10:40:11;;;;;;;47.47;20.20;;;;;;;4.25;54.82;99343.89;124054;1105;104246;-67
2021/03/07 10:42:41;;;;;;;24.63;11.12;;;;;;;4.43;54.23;99352.78;124159;1105;104197;-67
2021/03/07 10:45:23;;;;;;;23.37;9.90;;;;;;;4.40;54.27;99345.01;123953;1105;104271;-70
2021/03/07 10:48:00;;;;;;;21.07;9.63;;;;;;;4.43;54.21;99339.61;124135;1105;104156;-70
2021/03/07 10:50:29;;;;;;;21.00;9.40;;;;;;;4.52;54.13;99328.65;124097;1106;104396;-70
2021/03/07 10:52:58;;;;;;;22.73;10.37;;;;;;;4.57;54.37;99325.83;124058;1105;104204;-67
2021/03/07 10:55:25;;;;;;;22.55;9.65;;;;;;;4.56;54.09;99324.13;124296;1105;104286;-67
2021/03/07 10:57:53;;;;;;;21.70;9.37;;;;;;;4.57;54.09;99312.66;124090;1105;104163;-69
2021/03/07 11:00:25;;;;;;;22.20;9.93;;;;;;;4.63;54.30;99307.13;124117;1105;104649;-69
2021/03/07 11:02:53;;;;;;;21.57;9.30;;;;;;;4.86;54.61;99303.45;124078;1105;104830;-71
2021/03/07 11:05:23;;;;;;;22.40;9.53;;;;;;;4.97;54.18;99294.18;124063;1105;104184;-70
2021/03/07 11:07:50;;;;;;;22.00;10.00;;;;;;;5.00;54.19;99296.67;124101;1105;104344;-70
2021/03/07 11:10:21;;;;;;;21.63;9.73;;;;;;;4.96;53.77;99293.34;124113;1105;104181;-71
2021/03/07 11:12:50;;;;;;;23.40;10.13;;;;;;;5.00;54.12;99283.50;124173;1105;104316;-71
2021/03/07 11:15:18;;;;;;;22.60;9.30;;;;;;;5.08;54.03;99273.45;124087;1105;104322;-69
2021/03/07 11:17:46;;;;;;;22.77;10.00;;;;;;;5.13;54.06;99278.50;124263;1105;104200;-69
2021/03/07 11:20:15;;;;;;;23.93;8.97;;;;;;;5.17;54.00;99266.88;124296;1105;104258;-71
2021/03/07 11:22:42;;;;;;;22.43;9.50;;;;;;;5.14;53.46;99261.75;124041;1105;104182;-71
2021/03/07 11:25:10;;;;;;;22.05;9.90;;;;;;;4.96;53.69;99259.07;124258;1105;104243;-71
2021/03/07 11:27:37;;;;;;;22.23;9.53;;;;;;;4.84;53.48;99260.50;124058;1105;104165;-70
2021/03/07 11:30:08;;;;;;;21.43;9.17;;;;;;;4.77;53.61;99252.00;123999;1105;104169;-69
2021/03/07 11:32:35;;;;;;;20.73;9.93;;;;;;;4.71;53.50;99246.16;124164;1105;104262;-70
2021/03/07 11:35:06;;;;;;;19.00;8.70;;;;;;;4.72;53.59;99250.52;124169;1105;104213;-69